Weather reports worldwide

Advertisment
Serralta di S. Vito, Italy (16364): temperature & dewpoint: 07.08.2020 01:00:00 - 13.08.2020 01:00:00 (CEST)Serralta di S. Vito, Italy (16364): wind speed: 07.08.2020 01:00:00 - 13.08.2020 01:00:00 (CEST)Serralta di S. Vito, Italy (16364): wind direction: 07.08.2020 01:00:00 - 13.08.2020 01:00:00 (CEST)Serralta di S. Vito, Italy (16364): precipitation: 07.08.2020 01:00:00 - 13.08.2020 01:00:00 (CEST)
Date & Time tt [°C] td [°C] ff [km/h] ff [kn] dd rr [mm]
13.08.2020 01:00:00 - - - - - -
13.08.2020 00:00:00 - - - - - -
12.08.2020 23:00:00 - - - - - -
12.08.2020 22:00:00 - - - - - -
12.08.2020 21:00:00 - - - - - -
12.08.2020 20:00:00 - - - - - -
12.08.2020 19:00:00 - - - - - -
12.08.2020 18:00:00 - - - - - -
12.08.2020 17:00:00 - - - - - -
12.08.2020 16:00:00 - - - - - -
12.08.2020 15:00:00 - - - - - -
12.08.2020 14:00:00 - - - - - -
12.08.2020 13:00:00 - - - - - -
12.08.2020 12:00:00 - - - - - -
12.08.2020 11:00:00 - - - - - -
12.08.2020 10:00:00 - - - - - -
12.08.2020 09:00:00 - - - - - -
12.08.2020 08:00:00 - - - - - -
12.08.2020 07:00:00 - - - - - -
12.08.2020 06:00:00 - - - - - -
12.08.2020 05:00:00 - - - - - -
12.08.2020 04:00:00 - - - - - -
12.08.2020 03:00:00 - - - - - -
12.08.2020 02:00:00 - - - - - -
12.08.2020 01:00:00 - - - - - -
12.08.2020 00:00:00 - - - - - -
11.08.2020 23:00:00 - - - - - -
11.08.2020 22:00:00 - - - - - -
11.08.2020 21:00:00 - - - - - -
11.08.2020 20:00:00 - - - - - -
11.08.2020 19:00:00 - - - - - -
11.08.2020 18:00:00 - - - - - -
11.08.2020 17:00:00 - - - - - -
11.08.2020 16:00:00 - - - - - -
11.08.2020 15:00:00 - - - - - -
11.08.2020 14:00:00 - - - - - -
11.08.2020 13:00:00 - - - - - -
11.08.2020 12:00:00 - - - - - -
11.08.2020 11:00:00 - - - - - -
11.08.2020 10:00:00 - - - - - -
11.08.2020 09:00:00 - - - - - -
11.08.2020 08:00:00 - - - - - -
11.08.2020 07:00:00 - - - - - -
11.08.2020 06:00:00 - - - - - -
11.08.2020 05:00:00 - - - - - -
11.08.2020 04:00:00 - - - - - -
11.08.2020 03:00:00 - - - - - -
11.08.2020 02:00:00 - - - - - -
11.08.2020 01:00:00 - - - - - -
11.08.2020 00:00:00 - - - - - -
10.08.2020 23:00:00 - - - - - -
10.08.2020 22:00:00 - - - - - -
10.08.2020 21:00:00 - - - - - -
10.08.2020 20:00:00 - - - - - -
10.08.2020 19:00:00 - - - - - -
10.08.2020 18:00:00 - - - - - -
10.08.2020 17:00:00 - - - - - -
10.08.2020 16:00:00 - - - - - -
10.08.2020 15:00:00 - - - - - -
10.08.2020 14:00:00 - - - - - -
10.08.2020 13:00:00 - - - - - -
10.08.2020 12:00:00 - - - - - -
10.08.2020 11:00:00 - - - - - -
10.08.2020 10:00:00 - - - - - -
10.08.2020 09:00:00 - - - - - -
10.08.2020 08:00:00 - - - - - -
10.08.2020 07:00:00 15,8 13,7 8 4 SW -
10.08.2020 06:00:00 14,9 12,4 9 5 WSW -
10.08.2020 05:00:00 15,1 12,8 8 4 W -
10.08.2020 04:00:00 15,5 13,5 8 4 W -
10.08.2020 03:00:00 16,1 13,7 5 3 WSW -
10.08.2020 02:00:00 16,3 13,9 8 4 WSW 0,0
10.08.2020 01:00:00 16,3 13,7 8 4 WSW -
10.08.2020 00:00:00 16,9 14,3 5 3 W -
09.08.2020 23:00:00 16,7 14,3 5 3 W -
09.08.2020 22:00:00 17,6 15,2 8 4 SW -
09.08.2020 21:00:00 18,0 15,6 8 4 SW -
09.08.2020 20:00:00 18,8 16,2 8 4 W 0,0
09.08.2020 19:00:00 20,7 17,6 9 5 W -
09.08.2020 18:00:00 21,9 19,0 8 4 NW -
09.08.2020 17:00:00 22,1 18,8 9 5 SW -
09.08.2020 16:00:00 22,3 19,0 9 5 WSW -
09.08.2020 15:00:00 22,5 19,2 9 5 WSW -
09.08.2020 14:00:00 22,8 19,5 9 5 WNW 0,0
09.08.2020 13:00:00 23,0 19,9 5 3 W -
09.08.2020 12:00:00 22,4 19,9 9 5 WSW -
09.08.2020 11:00:00 20,3 17,8 13 7 WNW -
09.08.2020 10:00:00 18,1 16,7 11 6 WSW -
09.08.2020 09:00:00 17,5 16,0 11 6 W -
09.08.2020 08:00:00 16,9 15,4 15 8 WSW 0,0
09.08.2020 07:00:00 16,9 15,4 13 7 W -
09.08.2020 06:00:00 16,8 15,3 11 6 W -
09.08.2020 05:00:00 16,6 15,1 11 6 W -
09.08.2020 04:00:00 16,2 14,5 8 4 W -
09.08.2020 03:00:00 16,4 14,7 8 4 W -
09.08.2020 02:00:00 16,5 14,8 8 4 WSW 0,0
09.08.2020 01:00:00 17,0 15,3 8 4 WNW -
09.08.2020 00:00:00 16,7 15,0 9 5 W -
08.08.2020 23:00:00 16,7 15,0 9 5 W -
08.08.2020 22:00:00 16,5 14,1 9 5 WSW -
08.08.2020 21:00:00 16,4 14,0 9 5 W -
08.08.2020 20:00:00 16,8 14,4 11 6 WSW -
08.08.2020 19:00:00 17,5 15,1 13 7 W -
08.08.2020 18:00:00 16,5 14,3 8 4 W -
08.08.2020 17:00:00 17,2 14,8 11 6 W -
08.08.2020 16:00:00 18,3 15,8 9 5 W -
08.08.2020 15:00:00 21,0 18,5 8 4 W -
08.08.2020 14:00:00 19,9 17,2 8 4 SW 0,0
08.08.2020 13:00:00 21,2 18,7 9 5 NW -
08.08.2020 12:00:00 17,7 16,1 8 4 WSW -
08.08.2020 11:00:00 17,2 15,7 5 3 SW -
08.08.2020 10:00:00 16,2 14,7 9 5 W -
08.08.2020 09:00:00 16,2 14,7 9 5 W -
08.08.2020 08:00:00 15,5 14,0 11 6 W -
08.08.2020 07:00:00 15,2 13,7 13 7 WSW -
08.08.2020 06:00:00 15,7 14,2 13 7 W -
08.08.2020 05:00:00 15,9 14,4 13 7 WSW -
08.08.2020 04:00:00 16,0 14,5 9 5 W -
08.08.2020 03:00:00 15,7 14,0 11 6 NW -
08.08.2020 02:00:00 15,1 12,9 11 6 W -
08.08.2020 01:00:00 15,4 13,0 13 7 WNW -
08.08.2020 00:00:00 15,3 12,9 11 6 NW -
07.08.2020 23:00:00 16,0 13,6 11 6 W -
07.08.2020 22:00:00 16,1 13,7 11 6 WSW -
07.08.2020 21:00:00 16,1 13,7 15 8 W -
07.08.2020 20:00:00 16,3 13,9 15 8 W -
07.08.2020 19:00:00 16,7 14,3 15 8 NNW -
07.08.2020 18:00:00 16,8 14,4 9 5 SW -
07.08.2020 17:00:00 17,6 15,0 11 6 NW -
07.08.2020 16:00:00 18,3 15,8 15 8 W -
07.08.2020 15:00:00 17,4 14,8 13 7 W -
07.08.2020 14:00:00 18,6 15,8 15 8 W 0,0
07.08.2020 13:00:00 20,0 17,3 13 7 W -
07.08.2020 12:00:00 18,9 17,2 8 4 WNW -
07.08.2020 11:00:00 16,6 15,1 8 4 W -
07.08.2020 10:00:00 16,8 15,3 9 5 W -
07.08.2020 09:00:00 16,1 14,6 8 4 W -
07.08.2020 08:00:00 15,7 14,2 11 6 WSW 0,0
07.08.2020 07:00:00 15,5 14,0 11 6 WSW -
07.08.2020 06:00:00 15,5 13,8 11 6 W -
07.08.2020 05:00:00 15,3 13,6 9 5 WSW -
07.08.2020 04:00:00 15,2 13,5 9 5 W -
07.08.2020 03:00:00 14,9 12,7 11 6 WNW -
07.08.2020 02:00:00 14,9 12,6 13 7 SW 0,0
07.08.2020 01:00:00 14,9 12,7 8 4 ESE -

tt = temperature
td = dewpoint
ff = wind speed
dd = wind direction
rr = precipitation

Next stations